Time;durP1;ratioP1;P1;durP2;ratioP2;P2;SDS_P1;SDS_P2;PMS_P1;PMS_P2;Temp;Humidity;BMP_temperature;BMP_pressure;BME280_temperature;BME280_humidity;BME280_pressure;Samples;Min_cycle;Max_cycle;Signal;HPM_P1;HPM_P2
2023/08/23 00:01:12;;;;;;;2.40;1.25;;;;;;;;;;5005827;28;20065;-70
2023/08/23 00:03:38;;;;;;;4.43;1.40;;;;;;;;;;4979023;28;20115;-70
2023/08/23 00:06:04;;;;;;;2.78;1.30;;;;;;;;;;4987214;28;20054;-70
2023/08/23 00:08:30;;;;;;;4.40;1.45;;;;;;;;;;5004719;28;20435;-70
2023/08/23 00:10:56;;;;;;;6.38;2.55;;;;;;;;;;4989374;28;20050;-70
2023/08/23 00:13:22;;;;;;;2.65;1.85;;;14.90;99.90;;;;;;5002634;28;20092;-70
2023/08/23 00:15:48;;;;;;;3.83;1.92;;;;;;;;;;4987314;28;20055;-70
2023/08/23 00:18:14;;;;;;;2.40;1.67;;;;;;;;;;5005432;28;20049;-70
2023/08/23 00:20:40;;;;;;;2.30;1.70;;;;;;;;;;4987250;28;20044;-70
2023/08/23 00:23:06;;;;;;;2.13;1.30;;;;;;;;;;5001762;28;20048;-70
2023/08/23 00:25:31;;;;;;;1.85;1.50;;;14.80;99.90;;;;;;4988361;28;20137;-70
2023/08/23 00:27:58;;;;;;;2.70;1.60;;;;;;;;;;5003894;28;20045;-70
2023/08/23 00:30:24;;;;;;;3.80;1.45;;;;;;;;;;5005696;28;20046;-70
2023/08/23 00:32:49;;;;;;;3.00;1.35;;;14.40;99.90;;;;;;5004537;28;20391;-70
2023/08/23 00:35:15;;;;;;;4.55;1.17;;;;;;;;;;5004679;28;20038;-70
2023/08/23 00:37:41;;;;;;;2.97;1.60;;;;;;;;;;5006171;28;20439;-70
2023/08/23 00:40:09;;;;;;;2.50;1.45;;;14.20;99.90;;;;;;5004532;28;20121;-70
2023/08/23 00:42:35;;;;;;;2.60;1.92;;;;;;;;;;5003290;28;20989;-70
2023/08/23 00:45:02;;;;;;;2.03;1.42;;;;;;;;;;5004566;28;20691;-70
2023/08/23 00:47:28;;;;;;;1.83;1.00;;;14.00;99.90;;;;;;4986396;28;20057;-70
2023/08/23 00:49:57;;;;;;;3.55;1.15;;;;;;;;;;4999770;28;20560;-70
2023/08/23 00:52:23;;;;;;;1.65;1.30;;;;;;;;;;5001082;28;20045;-70
2023/08/23 00:54:49;;;;;;;2.20;1.45;;;;;;;;;;4986465;28;20053;-69
2023/08/23 00:57:15;;;;;;;1.77;1.30;;;14.10;99.90;;;;;;4987499;28;20512;-70
2023/08/23 00:59:41;;;;;;;2.95;1.48;;;14.20;99.90;;;;;;5004398;28;20140;-70
2023/08/23 01:02:08;;;;;;;2.67;1.67;;;14.20;99.90;;;;;;5004539;28;20512;-70
2023/08/23 01:04:34;;;;;;;3.13;2.10;;;;;;;;;;5002062;28;20041;-70
2023/08/23 01:07:08;;;;;;;4.60;1.40;;;14.30;99.90;;;;;;5004971;28;20041;-70
2023/08/23 01:10:09;;;;;;;1.08;0.68;;;14.30;99.90;;;;;;5005368;28;20107;-70
2023/08/23 01:12:57;;;;;;;1.65;1.10;;;14.20;99.90;;;;;;4985625;28;20129;-70
2023/08/23 01:15:24;;;;;;;1.98;0.95;;;14.20;99.90;;;;;;4989989;28;20706;-70
2023/08/23 01:17:50;;;;;;;1.70;1.25;;;;;;;;;;5003399;28;20121;-70
2023/08/23 01:20:17;;;;;;;2.72;1.65;;;14.10;99.90;;;;;;4983443;28;20493;-69
2023/08/23 01:22:53;;;;;;;1.60;1.40;;;14.30;99.90;;;;;;5003612;28;20137;-70
2023/08/23 01:25:19;;;;;;;3.22;1.63;;;14.10;99.90;;;;;;5004190;28;20396;-70
2023/08/23 01:27:45;;;;;;;1.27;1.00;;;;;;;;;;4987421;28;20042;-70
2023/08/23 01:30:14;;;;;;;1.40;0.90;;;13.80;99.90;;;;;;5004463;28;20841;-70
2023/08/23 01:32:55;;;;;;;3.10;1.52;;;14.00;99.90;;;;;;4993105;28;20030;-70
2023/08/23 01:35:28;;;;;;;1.52;1.10;;;14.00;99.90;;;;;;5003374;28;20095;-69
2023/08/23 01:37:57;;;;;;;1.17;0.95;;;13.60;99.90;;;;;;4976851;28;20042;-70
2023/08/23 01:40:23;;;;;;;1.83;1.15;;;;;;;;;;4981056;28;20471;-70
2023/08/23 01:42:50;;;;;;;1.45;1.23;;;13.90;99.90;;;;;;4994077;28;20037;-70
2023/08/23 01:45:16;;;;;;;1.52;1.30;;;13.70;99.90;;;;;;5002786;28;20045;-69
2023/08/23 01:47:41;;;;;;;1.55;1.20;;;13.60;99.90;;;;;;5003179;28;20034;-70
2023/08/23 01:50:07;;;;;;;2.83;1.20;;;;;;;;;;4997531;28;20077;-70
2023/08/23 01:52:33;;;;;;;1.63;1.38;;;13.60;99.90;;;;;;5002357;28;20508;-70
2023/08/23 01:54:59;;;;;;;2.10;1.52;;;;;;;;;;5001814;28;20050;-70
2023/08/23 01:57:25;;;;;;;2.20;1.73;;;;;;;;;;5004454;28;20038;-70
2023/08/23 01:59:52;;;;;;;1.33;1.17;;;;;;;;;;5002312;28;20116;-70
2023/08/23 02:02:17;;;;;;;2.63;2.08;;;;;;;;;;5004581;28;20042;-70
2023/08/23 02:04:43;;;;;;;5.80;3.38;;;13.60;99.90;;;;;;5002407;28;20050;-70
2023/08/23 02:07:09;;;;;;;1.60;1.42;;;13.60;99.90;;;;;;5003361;28;20061;-70
2023/08/23 02:09:35;;;;;;;1.70;1.23;;;;;;;;;;4985665;28;20100;-69
2023/08/23 02:12:00;;;;;;;1.42;1.23;;;;;;;;;;4998029;28;20117;-69
2023/08/23 02:14:26;;;;;;;2.35;1.58;;;13.50;99.90;;;;;;4983319;28;20061;-70
2023/08/23 02:16:52;;;;;;;1.88;1.52;;;;;;;;;;5002355;28;20805;-69
2023/08/23 02:19:18;;;;;;;2.65;2.15;;;;;;;;;;5003475;28;20041;-70
2023/08/23 02:21:44;;;;;;;2.72;2.40;;;13.50;99.90;;;;;;5002123;28;20042;-70
2023/08/23 02:24:10;;;;;;;2.58;2.30;;;;;;;;;;4985096;28;20069;-69
2023/08/23 02:26:36;;;;;;;4.10;2.50;;;;;;;;;;4986244;28;20049;-69
2023/08/23 02:29:02;;;;;;;3.97;3.05;;;13.40;99.90;;;;;;4970442;28;20065;-69
2023/08/23 02:31:28;;;;;;;3.78;3.38;;;;;;;;;;4972592;28;20187;-70
2023/08/23 02:33:53;;;;;;;5.13;4.50;;;13.70;99.90;;;;;;5007352;28;20064;-70
2023/08/23 02:36:19;;;;;;;4.95;4.45;;;;;;;;;;5005575;28;20400;-69
2023/08/23 02:38:45;;;;;;;4.68;4.00;;;13.60;99.90;;;;;;5007575;28;20412;-69
2023/08/23 02:41:11;;;;;;;10.18;5.18;;;;;;;;;;4990118;28;20076;-69
2023/08/23 02:43:37;;;;;;;5.28;3.95;;;;;;;;;;4985371;28;20077;-69
2023/08/23 02:46:03;;;;;;;4.07;3.25;;;;;;;;;;4987035;28;20157;-70
2023/08/23 02:48:29;;;;;;;8.25;5.53;;;;;;;;;;5007901;28;20038;-70
2023/08/23 02:50:55;;;;;;;6.10;4.35;;;;;;;;;;5009025;28;20041;-69
2023/08/23 02:53:21;;;;;;;5.22;4.72;;;;;;;;;;5003522;28;20045;-70
2023/08/23 02:55:47;;;;;;;6.32;4.70;;;;;;;;;;5006951;28;21510;-69
2023/08/23 02:58:13;;;;;;;5.07;4.50;;;;;;;;;;5005987;28;20041;-70
2023/08/23 03:00:39;;;;;;;12.68;8.50;;;;;;;;;;4989832;28;20126;-70
2023/08/23 03:03:05;;;;;;;17.48;8.77;;;;;;;;;;5006324;28;20041;-69
2023/08/23 03:05:31;;;;;;;16.50;9.80;;;14.00;99.90;;;;;;4988687;28;20786;-70
2023/08/23 03:07:57;;;;;;;18.92;9.82;;;;;;;;;;4988439;28;20052;-70
2023/08/23 03:10:23;;;;;;;16.88;9.75;;;;;;;;;;4988692;28;20053;-70
2023/08/23 03:12:49;;;;;;;11.27;8.70;;;;;;;;;;5005440;28;20058;-71
2023/08/23 03:15:15;;;;;;;12.57;9.35;;;14.10;99.90;;;;;;4989034;28;20824;-70
2023/08/23 03:17:41;;;;;;;28.75;12.57;;;;;;;;;;5001676;28;20042;-70
2023/08/23 03:20:07;;;;;;;22.88;13.75;;;;;;;;;;5002324;28;20034;-69
2023/08/23 03:22:33;;;;;;;28.02;14.77;;;;;;;;;;4986154;28;20046;-69
2023/08/23 03:24:58;;;;;;;23.40;14.48;;;14.30;99.90;;;;;;4998556;28;20038;-70
2023/08/23 03:27:25;;;;;;;23.02;12.75;;;;;;;;;;4987223;28;20046;-69
2023/08/23 03:29:51;;;;;;;19.40;12.93;;;;;;;;;;5003897;28;20049;-70
2023/08/23 03:32:17;;;;;;;26.08;16.15;;;;;;;;;;5006934;28;20038;-69
2023/08/23 03:34:43;;;;;;;19.75;14.43;;;;;;;;;;5005607;28;20116;-69
2023/08/23 03:37:09;;;;;;;22.65;14.93;;;;;;;;;;4988523;28;20061;-70
2023/08/23 03:39:37;;;;;;;24.73;14.55;;;;;;;;;;4987633;28;20033;-70
2023/08/23 03:42:03;;;;;;;20.13;13.68;;;;;;;;;;4972702;28;20038;-70
2023/08/23 03:44:29;;;;;;;21.30;14.68;;;;;;;;;;5003824;28;20056;-70
2023/08/23 03:46:56;;;;;;;19.98;14.45;;;14.70;99.90;;;;;;5003942;28;20767;-71
2023/08/23 03:49:22;;;;;;;21.65;14.20;;;;;;;;;;5005360;28;20045;-71
2023/08/23 03:51:48;;;;;;;17.50;12.98;;;;;;;;;;5004591;28;20052;-70
2023/08/23 03:54:15;;;;;;;16.83;12.52;;;14.60;99.90;;;;;;5003570;28;20073;-71
2023/08/23 03:56:41;;;;;;;17.60;12.93;;;;;;;;;;4985655;28;20054;-71
2023/08/23 03:59:06;;;;;;;16.92;12.10;;;14.70;99.90;;;;;;5006199;28;20065;-71
2023/08/23 04:01:32;;;;;;;15.60;11.18;;;;;;;;;;4987737;28;20137;-71
2023/08/23 04:03:58;;;;;;;16.88;13.10;;;;;;;;;;4985622;28;20068;-71
2023/08/23 04:06:24;;;;;;;17.45;11.60;;;;;;;;;;4987247;28;20060;-70
2023/08/23 04:08:50;;;;;;;15.32;10.85;;;;;;;;;;5006444;28;20052;-71
2023/08/23 04:11:16;;;;;;;16.02;11.10;;;14.60;99.90;;;;;;5005205;28;20104;-71
2023/08/23 04:13:42;;;;;;;14.57;10.95;;;;;;;;;;4987396;28;20050;-71
2023/08/23 04:16:11;;;;;;;14.48;10.02;;;14.50;99.90;;;;;;4987648;28;20091;-71
2023/08/23 04:18:36;;;;;;;13.23;9.50;;;14.70;99.90;;;;;;5006802;28;20037;-71
2023/08/23 04:21:02;;;;;;;12.30;10.30;;;14.50;99.90;;;;;;4986765;28;20784;-71
2023/08/23 04:23:28;;;;;;;10.65;8.63;;;;;;;;;;5004379;28;20046;-71
2023/08/23 04:25:54;;;;;;;10.05;8.55;;;;;;;;;;4988301;28;20050;-71
2023/08/23 04:28:20;;;;;;;12.15;8.90;;;14.50;99.90;;;;;;4986798;28;20720;-71
2023/08/23 04:30:46;;;;;;;12.15;9.82;;;;;;;;;;5001871;28;20077;-70
2023/08/23 04:33:12;;;;;;;14.63;10.15;;;;;;;;;;5003180;28;20053;-71
2023/08/23 04:35:38;;;;;;;14.57;10.38;;;;;;;;;;4996066;28;20636;-71
2023/08/23 04:38:04;;;;;;;12.45;9.95;;;13.10;99.90;;;;;;5006281;28;20042;-71
2023/08/23 04:40:30;;;;;;;11.55;8.80;;;14.60;99.90;;;;;;4986930;28;20037;-71
2023/08/23 04:42:56;;;;;;;11.57;7.90;;;;;;;;;;5002277;28;20507;-71
2023/08/23 04:45:22;;;;;;;12.63;9.98;;;;;;;;;;4985268;28;20706;-71
2023/08/23 04:47:47;;;;;;;14.23;10.68;;;14.50;99.90;;;;;;5005796;28;20145;-71
2023/08/23 04:50:13;;;;;;;14.25;11.18;;;;;;;;;;5004552;28;20100;-71
2023/08/23 04:52:39;;;;;;;16.60;12.35;;;;;;;;;;5000720;28;20727;-71
2023/08/23 04:55:05;;;;;;;18.55;13.15;;;14.70;99.90;;;;;;4994478;28;20535;-71
2023/08/23 04:57:31;;;;;;;18.90;13.48;;;;;;;;;;4985614;28;20038;-71
2023/08/23 04:59:57;;;;;;;24.50;14.60;;;;;;;;;;4985922;28;20072;-71
2023/08/23 05:02:23;;;;;;;22.27;15.50;;;;;;;;;;5004824;28;20038;-71
2023/08/23 05:04:49;;;;;;;19.30;13.93;;;;;;;;;;4985526;28;20038;-70
2023/08/23 05:07:15;;;;;;;19.13;13.43;;;;;;;;;;5004821;28;20056;-71
2023/08/23 05:09:41;;;;;;;19.63;14.10;;;;;;;;;;5002586;28;20092;-70
2023/08/23 05:12:09;;;;;;;18.27;13.48;;;;;;;;;;4986703;28;20066;-70
2023/08/23 05:14:34;;;;;;;16.52;12.07;;;;;;;;;;4999620;28;20494;-71
2023/08/23 05:17:00;;;;;;;17.98;13.13;;;;;;;;;;4997047;28;20046;-70
2023/08/23 05:19:26;;;;;;;22.50;13.52;;;;;;;;;;4984322;28;20623;-70
2023/08/23 05:21:52;;;;;;;15.80;11.95;;;;;;;;;;4985371;28;20048;-71
2023/08/23 05:24:18;;;;;;;16.48;12.05;;;14.80;99.90;;;;;;4985242;28;20077;-70
2023/08/23 05:26:44;;;;;;;15.75;11.93;;;;;;;;;;4987230;28;20054;-71
2023/08/23 05:29:10;;;;;;;15.77;12.57;;;;;;;;;;4986156;28;20040;-70
2023/08/23 05:31:36;;;;;;;16.45;12.20;;;;;;;;;;4986185;28;21515;-70
2023/08/23 05:34:02;;;;;;;16.60;13.43;;;;;;;;;;5000193;28;20044;-70
2023/08/23 05:36:29;;;;;;;20.23;12.73;;;;;;;;;;5004111;28;20041;-70
2023/08/23 05:38:55;;;;;;;17.08;12.73;;;;;;;;;;4986786;28;20046;-70
2023/08/23 05:41:21;;;;;;;16.75;13.80;;;14.70;99.90;;;;;;5002862;28;20040;-70
2023/08/23 05:43:47;;;;;;;16.23;13.05;;;;;;;;;;4986149;28;20129;-71
2023/08/23 05:46:13;;;;;;;21.02;14.55;;;;;;;;;;4986931;28;20080;-70
2023/08/23 05:48:39;;;;;;;21.77;15.75;;;;;;;;;;4985084;28;20132;-70
2023/08/23 05:51:05;;;;;;;18.52;14.18;;;;;;;;;;5002895;28;20671;-70
2023/08/23 05:53:31;;;;;;;18.52;14.48;;;;;;;;;;5002014;28;20095;-70
2023/08/23 05:55:57;;;;;;;21.00;15.18;;;;;;;;;;4983896;28;20050;-70
2023/08/23 05:58:25;;;;;;;21.88;14.90;;;;;;;;;;4983398;28;20052;-70
2023/08/23 06:00:51;;;;;;;22.45;14.70;;;;;;;;;;5002083;28;20495;-70
2023/08/23 06:03:17;;;;;;;21.70;14.98;;;;;;;;;;5002044;28;20044;-70
2023/08/23 06:05:46;;;;;;;21.20;15.55;;;15.30;99.90;;;;;;5003431;28;20053;-71
2023/08/23 06:08:12;;;;;;;20.45;14.15;;;;;;;;;;5003940;28;20052;-70
2023/08/23 06:10:38;;;;;;;18.98;13.90;;;;;;;;;;4995499;28;20045;-70
2023/08/23 06:13:04;;;;;;;20.17;15.40;;;;;;;;;;5002276;28;20058;-70
2023/08/23 06:15:30;;;;;;;15.30;12.98;;;;;;;;;;4986282;28;20048;-70
2023/08/23 06:17:55;;;;;;;16.48;12.82;;;16.30;99.90;;;;;;4985461;28;20042;-70
2023/08/23 06:20:21;;;;;;;18.05;13.05;;;;;;;;;;5002122;28;20038;-70
2023/08/23 06:22:48;;;;;;;13.73;11.48;;;;;;;;;;4985260;28;20045;-70
2023/08/23 06:25:14;;;;;;;15.77;12.30;;;;;;;;;;4984855;28;20123;-71
2023/08/23 06:27:40;;;;;;;21.08;12.65;;;;;;;;;;5001631;28;20503;-70
2023/08/23 06:30:06;;;;;;;15.35;11.82;;;17.60;99.90;;;;;;4985979;28;20107;-71
2023/08/23 06:32:32;;;;;;;12.73;9.45;;;18.50;99.90;;;;;;5003168;28;20397;-70
2023/08/23 06:34:57;;;;;;;12.20;9.02;;;18.50;99.90;;;;;;4982007;28;20046;-71
2023/08/23 06:37:23;;;;;;;12.45;7.88;;;18.90;99.90;;;;;;4982789;28;20057;-71
2023/08/23 06:39:50;;;;;;;9.95;7.47;;;19.90;99.90;;;;;;4974546;28;20501;-71
2023/08/23 06:42:17;;;;;;;8.70;7.25;;;20.90;99.90;;;;;;4981337;28;20827;-71
2023/08/23 06:44:43;;;;;;;11.30;6.72;;;21.60;99.90;;;;;;5003451;28;20048;-71
2023/08/23 06:47:09;;;;;;;7.70;6.80;;;22.40;99.90;;;;;;4986082;28;20534;-71
2023/08/23 06:49:35;;;;;;;16.13;10.70;;;21.80;99.90;;;;;;4985224;28;20049;-71
2023/08/23 06:52:01;;;;;;;21.30;15.43;;;21.80;99.90;;;;;;4975184;28;20089;-70
2023/08/23 06:54:26;;;;;;;11.85;7.22;;;21.60;99.90;;;;;;4999271;28;20416;-71
2023/08/23 06:56:52;;;;;;;12.50;6.85;;;21.50;99.90;;;;;;4997616;28;20708;-70
2023/08/23 06:59:17;;;;;;;10.40;6.40;;;21.80;99.90;;;;;;4982969;28;20057;-71
2023/08/23 07:01:43;;;;;;;7.72;6.22;;;22.40;99.90;;;;;;4984323;28;20041;-71
2023/08/23 07:04:08;;;;;;;7.40;5.43;;;23.30;99.90;;;;;;4980039;28;20045;-71
2023/08/23 07:06:34;;;;;;;8.48;6.22;;;23.60;99.90;;;;;;4990980;28;20046;-70
2023/08/23 07:08:59;;;;;;;7.55;5.78;;;23.70;99.90;;;;;;4993299;28;20026;-71
2023/08/23 07:11:25;;;;;;;9.25;6.82;;;23.20;99.90;;;;;;4995745;28;20053;-70
2023/08/23 07:13:50;;;;;;;7.75;5.63;;;23.20;99.90;;;;;;4991782;28;20057;-71
2023/08/23 07:16:16;;;;;;;8.65;5.93;;;23.10;99.90;;;;;;4991351;28;20799;-69
2023/08/23 07:18:42;;;;;;;12.70;6.97;;;22.50;99.90;;;;;;4992608;28;20609;-71
2023/08/23 07:21:08;;;;;;;9.82;6.18;;;21.90;99.90;;;;;;4980577;28;20049;-72
2023/08/23 07:23:34;;;;;;;8.20;7.05;;;21.20;99.90;;;;;;4993332;28;20912;-71
2023/08/23 07:26:02;;;;;;;9.52;6.50;;;21.00;99.90;;;;;;4994429;28;20096;-70
2023/08/23 07:28:28;;;;;;;11.35;6.80;;;20.80;99.90;;;;;;5005293;28;20808;-71
2023/08/23 07:30:57;;;;;;;7.97;6.35;;;20.30;99.90;;;;;;5006125;28;20042;-72
2023/08/23 07:33:26;;;;;;;10.93;7.07;;;20.40;99.90;;;;;;4996931;28;20038;-71
2023/08/23 07:35:57;;;;;;;10.48;7.70;;;19.80;99.90;;;;;;4984654;28;20489;-71
2023/08/23 07:38:23;;;;;;;15.75;7.53;;;20.20;99.90;;;;;;4995181;28;20048;-71
2023/08/23 07:40:48;;;;;;;12.40;7.22;;;19.70;99.90;;;;;;5003453;28;20039;-71
2023/08/23 07:43:14;;;;;;;11.65;8.07;;;19.90;99.90;;;;;;5000539;28;20048;-71
2023/08/23 07:45:39;;;;;;;15.32;8.60;;;20.30;99.90;;;;;;4984162;28;20042;-71
2023/08/23 07:48:05;;;;;;;9.38;7.30;;;19.90;99.90;;;;;;5004070;28;20030;-71
2023/08/23 07:50:31;;;;;;;13.20;8.82;;;19.90;99.90;;;;;;4986504;28;20106;-71
2023/08/23 07:52:56;;;;;;;10.00;7.63;;;19.90;99.90;;;;;;5007402;28;20038;-71
2023/08/23 07:55:22;;;;;;;12.27;8.00;;;19.90;99.90;;;;;;4988211;28;20052;-71
2023/08/23 07:57:48;;;;;;;14.18;9.13;;;20.00;99.90;;;;;;4985126;28;20043;-72
2023/08/23 08:00:13;;;;;;;11.00;8.27;;;20.00;99.90;;;;;;4987976;28;20137;-72
2023/08/23 08:02:39;;;;;;;14.52;9.65;;;20.10;99.90;;;;;;4984204;28;20046;-71
2023/08/23 08:05:06;;;;;;;14.27;8.82;;;20.20;99.90;;;;;;5002298;28;20125;-72
2023/08/23 08:07:33;;;;;;;11.77;8.95;;;20.00;99.90;;;;;;4985625;28;20507;-72
2023/08/23 08:09:58;;;;;;;11.00;9.05;;;20.10;99.90;;;;;;4977951;28;20057;-72
2023/08/23 08:12:24;;;;;;;16.55;10.13;;;20.00;99.90;;;;;;4983878;28;20062;-72
2023/08/23 08:14:49;;;;;;;15.77;9.80;;;20.60;99.90;;;;;;4986486;28;20045;-71
2023/08/23 08:17:15;;;;;;;16.02;10.32;;;20.30;99.90;;;;;;4967551;28;20041;-72
2023/08/23 08:19:41;;;;;;;15.60;10.70;;;20.30;99.90;;;;;;5005876;28;20042;-71
2023/08/23 08:22:06;;;;;;;17.15;12.02;;;20.40;99.90;;;;;;4997055;28;20216;-71
2023/08/23 08:24:32;;;;;;;13.77;10.77;;;20.60;99.90;;;;;;4984566;28;20089;-72
2023/08/23 08:26:57;;;;;;;17.65;11.32;;;20.60;99.90;;;;;;4999746;28;20119;-72
2023/08/23 08:29:23;;;;;;;14.68;10.40;;;20.70;99.90;;;;;;4996270;28;20099;-73
2023/08/23 08:31:50;;;;;;;15.57;11.50;;;20.70;99.90;;;;;;5001330;28;20038;-72
2023/08/23 08:34:17;;;;;;;16.67;11.25;;;20.80;99.90;;;;;;4997812;28;20049;-71
2023/08/23 08:36:43;;;;;;;16.63;10.90;;;20.80;99.90;;;;;;4999188;28;20096;-72
2023/08/23 08:39:08;;;;;;;14.05;10.55;;;20.80;99.90;;;;;;4986638;28;20492;-72
2023/08/23 08:41:34;;;;;;;17.02;10.73;;;21.00;99.90;;;;;;4986313;28;20804;-72
2023/08/23 08:44:00;;;;;;;15.43;11.13;;;21.10;99.90;;;;;;4988431;28;20161;-71
2023/08/23 08:46:26;;;;;;;15.00;11.18;;;21.10;99.90;;;;;;4983026;28;20037;-72
2023/08/23 08:48:52;;;;;;;14.93;10.60;;;21.10;99.90;;;;;;4986100;28;20112;-71
2023/08/23 08:51:20;;;;;;;19.88;11.23;;;21.30;99.90;;;;;;5003010;28;20042;-72
2023/08/23 08:53:52;;;;;;;14.45;10.68;;;21.40;99.90;;;;;;4984874;28;20056;-72
2023/08/23 08:56:19;;;;;;;16.58;10.13;;;21.50;99.90;;;;;;5002919;28;20038;-71
2023/08/23 08:58:45;;;;;;;15.05;10.55;;;21.60;99.90;;;;;;4997268;28;20508;-72
2023/08/23 09:01:13;;;;;;;15.88;9.90;;;21.50;99.90;;;;;;4982315;28;20069;-72
2023/08/23 09:03:40;;;;;;;14.95;10.88;;;22.90;99.90;;;;;;5000600;28;20061;-72
2023/08/23 09:06:07;;;;;;;16.73;10.35;;;21.80;99.90;;;;;;4958920;28;20429;-73
2023/08/23 09:08:34;;;;;;;14.23;10.50;;;21.90;99.90;;;;;;4984550;28;20552;-72
2023/08/23 09:10:59;;;;;;;16.23;10.00;;;21.80;99.90;;;;;;4982778;28;20050;-72
2023/08/23 09:13:25;;;;;;;16.77;10.75;;;21.80;99.90;;;;;;4982083;28;20814;-72
2023/08/23 09:15:51;;;;;;;12.25;9.45;;;22.10;99.90;;;;;;4984663;28;20077;-72
2023/08/23 09:18:20;;;;;;;17.13;10.23;;;22.00;99.90;;;;;;4990880;28;20038;-72
2023/08/23 09:20:46;;;;;;;18.75;11.02;;;21.90;99.90;;;;;;5000738;28;20831;-72
2023/08/23 09:23:12;;;;;;;14.93;9.50;;;21.80;99.90;;;;;;4991251;28;20041;-72
2023/08/23 09:25:37;;;;;;;12.70;9.00;;;22.10;99.90;;;;;;4974076;28;20033;-72
2023/08/23 09:28:03;;;;;;;17.08;11.02;;;23.00;99.90;;;;;;4994748;28;20064;-72
2023/08/23 09:30:29;;;;;;;14.32;10.52;;;22.30;99.90;;;;;;4999477;28;20129;-72
2023/08/23 09:32:57;;;;;;;15.07;9.02;;;22.40;99.90;;;;;;4996856;28;20053;-72
2023/08/23 09:35:22;;;;;;;15.25;10.20;;;22.50;99.90;;;;;;4980221;28;20925;-72
2023/08/23 09:37:49;;;;;;;14.23;10.15;;;22.20;99.90;;;;;;5002187;28;20049;-72
2023/08/23 09:40:15;;;;;;;18.02;11.27;;;22.50;99.90;;;;;;4984667;28;20605;-72
2023/08/23 09:42:42;;;;;;;13.63;9.38;;;22.30;99.90;;;;;;4997525;28;20404;-72
2023/08/23 09:45:11;;;;;;;13.55;10.27;;;22.70;99.90;;;;;;4982237;28;20061;-72
2023/08/23 09:47:39;;;;;;;17.00;9.07;;;22.40;99.90;;;;;;4996482;28;20054;-72
2023/08/23 09:50:06;;;;;;;15.07;9.27;;;22.80;99.90;;;;;;4977868;28;20468;-72
2023/08/23 09:52:34;;;;;;;19.08;9.35;;;22.90;99.90;;;;;;5002555;28;20748;-72
2023/08/23 09:55:08;;;;;;;16.52;9.95;;;23.10;99.90;;;;;;4968265;28;20521;-72
2023/08/23 09:57:34;;;;;;;19.57;9.83;;;23.40;99.90;;;;;;4994929;28;20049;-72
2023/08/23 10:00:00;;;;;;;16.30;10.00;;;23.00;99.90;;;;;;4980656;28;20077;-72
2023/08/23 10:02:27;;;;;;;13.60;9.48;;;23.40;99.90;;;;;;4982988;28;20101;-72
2023/08/23 10:04:53;;;;;;;15.85;9.45;;;23.20;99.90;;;;;;4994646;28;20049;-72
2023/08/23 10:07:20;;;;;;;14.82;9.38;;;23.40;99.90;;;;;;4984594;28;20050;-72
2023/08/23 10:09:46;;;;;;;18.15;9.80;;;23.40;99.90;;;;;;4995447;28;20038;-72
2023/08/23 10:12:13;;;;;;;14.80;9.88;;;23.60;99.90;;;;;;4986475;28;20054;-72
2023/08/23 10:14:43;;;;;;;15.23;8.05;;;23.60;99.90;;;;;;4984598;28;20473;-72
2023/08/23 10:17:11;;;;;;;15.35;10.38;;;23.50;99.90;;;;;;4979829;28;20564;-72
2023/08/23 10:19:37;;;;;;;13.98;9.60;;;25.20;99.90;;;;;;4980663;28;20054;-72
2023/08/23 10:22:03;;;;;;;14.13;9.57;;;24.20;99.90;;;;;;5002188;28;20046;-72
2023/08/23 10:24:30;;;;;;;15.43;9.95;;;23.80;99.90;;;;;;4980929;28;20082;-72
2023/08/23 10:26:56;;;;;;;14.00;8.98;;;23.30;99.90;;;;;;4997632;28;20405;-72
2023/08/23 10:29:28;;;;;;;15.75;10.18;;;23.70;99.90;;;;;;4998065;28;20038;-72
2023/08/23 10:31:55;;;;;;;16.10;9.25;;;23.50;99.90;;;;;;4993656;28;20046;-72
2023/08/23 10:34:27;;;;;;;14.13;8.93;;;23.20;99.90;;;;;;5000696;28;20213;-71
2023/08/23 10:36:56;;;;;;;14.35;9.60;;;23.50;99.90;;;;;;4991812;28;20121;-72
2023/08/23 10:39:26;;;;;;;12.98;8.68;;;23.30;99.90;;;;;;4996673;28;20033;-72
2023/08/23 10:41:55;;;;;;;10.25;8.05;;;23.50;99.90;;;;;;4999110;28;20049;-72
2023/08/23 10:44:21;;;;;;;13.73;7.57;;;23.10;99.90;;;;;;5000147;28;20076;-72
2023/08/23 10:46:49;;;;;;;15.75;8.35;;;23.70;99.90;;;;;;4996219;28;20784;-72
2023/08/23 10:49:17;;;;;;;13.45;8.98;;;23.50;99.90;;;;;;4980376;28;20049;-72
2023/08/23 10:51:43;;;;;;;12.40;7.55;;;23.50;99.90;;;;;;4984599;28;20796;-72
2023/08/23 10:54:13;;;;;;;12.10;6.80;;;23.50;99.90;;;;;;4997105;28;20084;-72
2023/08/23 10:56:40;;;;;;;12.02;7.78;;;23.10;99.90;;;;;;4993977;28;20149;-72
2023/08/23 10:59:08;;;;;;;9.52;7.25;;;23.40;99.90;;;;;;4985197;28;20651;-72
2023/08/23 11:01:35;;;;;;;17.20;7.20;;;23.10;99.90;;;;;;5005758;28;20033;-72
2023/08/23 11:04:07;;;;;;;12.48;7.00;;;23.40;99.90;;;;;;4984024;28;20084;-72
2023/08/23 11:06:33;;;;;;;8.48;6.30;;;23.30;99.90;;;;;;4997741;28;20046;-72
2023/08/23 11:08:59;;;;;;;11.65;6.97;;;23.50;99.90;;;;;;4993088;28;20323;-72
2023/08/23 11:11:29;;;;;;;11.93;7.00;;;22.40;99.90;;;;;;4987408;28;20112;-72
2023/08/23 11:13:54;;;;;;;11.55;6.95;;;23.20;99.90;;;;;;4987751;28;20507;-72
2023/08/23 11:16:22;;;;;;;9.30;5.85;;;22.90;99.90;;;;;;4985037;28;20073;-72
2023/08/23 11:18:48;;;;;;;11.93;5.00;;;22.90;99.90;;;;;;4986373;28;20052;-72
2023/08/23 11:21:14;;;;;;;12.98;4.88;;;23.20;99.90;;;;;;4982586;28;20038;-72
2023/08/23 11:23:39;;;;;;;12.70;5.05;;;23.10;99.90;;;;;;4986991;28;20444;-72
2023/08/23 11:26:05;;;;;;;11.40;4.18;;;23.30;99.90;;;;;;5007428;28;20046;-72
2023/08/23 11:28:31;;;;;;;8.55;3.28;;;24.10;99.90;;;;;;4989512;28;20067;-72
2023/08/23 11:31:06;;;;;;;5.82;3.75;;;23.40;99.90;;;;;;4988645;28;20042;-72
2023/08/23 11:33:33;;;;;;;5.93;3.35;;;23.40;99.90;;;;;;4985465;28;20949;-72
2023/08/23 11:35:59;;;;;;;6.65;3.47;;;23.70;99.90;;;;;;4989351;28;20141;-72
2023/08/23 11:38:28;;;;;;;8.60;3.60;;;23.60;99.90;;;;;;4999187;28;20046;-72
2023/08/23 11:40:54;;;;;;;8.52;4.45;;;23.50;99.90;;;;;;4985466;28;20077;-72
2023/08/23 11:43:19;;;;;;;6.28;3.30;;;23.50;99.90;;;;;;4998135;28;20138;-72
2023/08/23 11:45:48;;;;;;;10.57;4.03;;;23.70;99.90;;;;;;4984998;28;20054;-72
2023/08/23 11:48:14;;;;;;;11.57;4.60;;;23.90;99.90;;;;;;4988437;28;20096;-72
2023/08/23 11:50:40;;;;;;;8.25;4.18;;;23.60;99.90;;;;;;4971757;28;20129;-72
2023/08/23 11:53:05;;;;;;;9.95;2.85;;;23.90;99.90;;;;;;4985327;28;20580;-72
2023/08/23 11:55:33;;;;;;;9.77;3.10;;;23.80;99.90;;;;;;4984297;28;20046;-72
2023/08/23 11:57:59;;;;;;;6.90;4.05;;;24.10;99.90;;;;;;4996212;28;20515;-72
2023/08/23 12:00:25;;;;;;;6.60;3.40;;;23.90;99.90;;;;;;4982831;28;20050;-72
2023/08/23 12:02:52;;;;;;;10.73;3.60;;;24.10;99.90;;;;;;4987431;28;20506;-72
2023/08/23 12:05:19;;;;;;;5.97;2.17;;;24.10;99.90;;;;;;5002436;28;20037;-72
2023/08/23 12:07:45;;;;;;;9.43;3.00;;;24.10;99.90;;;;;;4959412;28;20050;-72
2023/08/23 12:10:11;;;;;;;6.95;2.80;;;23.90;99.90;;;;;;4981569;28;20046;-72
2023/08/23 12:12:37;;;;;;;8.48;2.72;;;24.10;99.90;;;;;;4996506;28;20062;-72
2023/08/23 12:15:07;;;;;;;7.80;1.80;;;24.20;99.90;;;;;;5005462;28;20053;-72
2023/08/23 12:17:32;;;;;;;5.85;2.55;;;24.10;99.90;;;;;;4965628;28;20152;-72
2023/08/23 12:19:59;;;;;;;7.75;1.63;;;24.10;99.90;;;;;;5004289;28;20080;-72
2023/08/23 12:22:24;;;;;;;5.82;2.03;;;24.00;99.90;;;;;;4999351;28;20034;-72
2023/08/23 12:24:50;;;;;;;4.53;2.67;;;24.20;99.90;;;;;;5002540;28;20484;-72
2023/08/23 12:27:15;;;;;;;4.43;1.98;;;23.90;99.90;;;;;;5003335;28;20400;-72
2023/08/23 12:29:41;;;;;;;4.78;1.58;;;24.00;99.90;;;;;;4996643;28;20408;-72
2023/08/23 12:32:07;;;;;;;4.97;1.98;;;24.20;99.90;;;;;;4998167;28;20046;-72
2023/08/23 12:34:34;;;;;;;5.05;2.13;;;23.80;99.90;;;;;;4982058;28;20054;-72
2023/08/23 12:37:00;;;;;;;9.80;1.67;;;25.50;99.90;;;;;;4994409;28;20496;-72
2023/08/23 12:39:26;;;;;;;6.07;2.20;;;24.00;99.90;;;;;;4994769;28;20038;-72
2023/08/23 12:41:52;;;;;;;5.78;2.20;;;24.10;99.90;;;;;;4995311;28;20042;-72
2023/08/23 12:44:18;;;;;;;5.63;1.90;;;24.30;99.90;;;;;;4999188;28;20073;-72
2023/08/23 12:46:43;;;;;;;5.72;2.17;;;24.20;99.90;;;;;;4967544;28;20465;-72
2023/08/23 12:49:12;;;;;;;5.32;1.75;;;24.20;99.90;;;;;;4970688;28;20132;-72
2023/08/23 12:51:42;;;;;;;5.40;1.80;;;24.10;99.90;;;;;;5006110;28;20096;-72
2023/08/23 12:54:08;;;;;;;4.15;1.58;;;24.50;99.90;;;;;;4985388;28;20050;-72
2023/08/23 12:56:35;;;;;;;3.88;1.58;;;24.20;99.90;;;;;;5004520;28;20132;-72
2023/08/23 12:59:02;;;;;;;9.88;2.17;;;24.00;99.90;;;;;;4995430;28;20138;-72
2023/08/23 13:01:27;;;;;;;6.88;1.88;;;24.30;99.90;;;;;;4997014;28;20044;-72
2023/08/23 13:03:53;;;;;;;5.53;1.45;;;24.30;99.90;;;;;;4980704;28;20049;-72
2023/08/23 13:06:19;;;;;;;4.72;1.70;;;24.30;99.90;;;;;;4983427;28;20054;-72
2023/08/23 13:08:44;;;;;;;3.53;1.83;;;25.40;99.90;;;;;;4982751;28;20056;-72